sensor_id;sensor_type;location;lat;lon;timestamp;temperature;humidity
9544;DHT22;30418;51.45933468;7.33152330;2024-02-21T00:00:50;12.00;68.90
9544;DHT22;30418;51.45933468;7.33152330;2024-02-21T00:03:19;12.00;68.80
9544;DHT22;30418;51.45933468;7.33152330;2024-02-21T00:05:48;12.00;68.80
9544;DHT22;30418;51.45933468;7.33152330;2024-02-21T00:08:16;12.00;68.70
9544;DHT22;30418;51.45933468;7.33152330;2024-02-21T00:10:45;12.00;68.70
9544;DHT22;30418;51.45933468;7.33152330;2024-02-21T00:13:14;12.00;68.70
9544;DHT22;30418;51.45933468;7.33152330;2024-02-21T00:15:44;12.00;68.70
9544;DHT22;30418;51.45933468;7.33152330;2024-02-21T00:18:12;12.00;68.70
9544;DHT22;30418;51.45933468;7.33152330;2024-02-21T00:20:41;11.90;68.70
9544;DHT22;30418;51.45933468;7.33152330;2024-02-21T00:23:10;12.00;68.90
9544;DHT22;30418;51.45933468;7.33152330;2024-02-21T00:25:38;11.90;68.70
9544;DHT22;30418;51.45933468;7.33152330;2024-02-21T00:28:07;12.00;69.00
9544;DHT22;30418;51.45933468;7.33152330;2024-02-21T00:30:36;11.90;68.90
9544;DHT22;30418;51.45933468;7.33152330;2024-02-21T00:33:06;11.90;68.90
9544;DHT22;30418;51.45933468;7.33152330;2024-02-21T00:35:35;12.00;69.00
9544;DHT22;30418;51.45933468;7.33152330;2024-02-21T00:38:04;11.90;69.00
9544;DHT22;30418;51.45933468;7.33152330;2024-02-21T00:40:32;12.00;69.00
9544;DHT22;30418;51.45933468;7.33152330;2024-02-21T00:43:02;12.00;69.10
9544;DHT22;30418;51.45933468;7.33152330;2024-02-21T00:45:31;12.00;69.10
9544;DHT22;30418;51.45933468;7.33152330;2024-02-21T00:48:00;12.00;69.20
9544;DHT22;30418;51.45933468;7.33152330;2024-02-21T00:50:30;12.00;69.20
9544;DHT22;30418;51.45933468;7.33152330;2024-02-21T00:52:58;11.90;69.00
9544;DHT22;30418;51.45933468;7.33152330;2024-02-21T00:55:27;12.00;69.20
9544;DHT22;30418;51.45933468;7.33152330;2024-02-21T00:57:56;12.00;69.10
9544;DHT22;30418;51.45933468;7.33152330;2024-02-21T01:00:24;12.00;69.10
9544;DHT22;30418;51.45933468;7.33152330;2024-02-21T01:02:52;12.00;69.10
9544;DHT22;30418;51.45933468;7.33152330;2024-02-21T01:05:21;11.90;69.00
9544;DHT22;30418;51.45933468;7.33152330;2024-02-21T01:07:51;12.00;69.10
9544;DHT22;30418;51.45933468;7.33152330;2024-02-21T01:10:20;12.00;69.10
9544;DHT22;30418;51.45933468;7.33152330;2024-02-21T01:12:48;11.90;69.00
9544;DHT22;30418;51.45933468;7.33152330;2024-02-21T01:15:17;11.90;69.00
9544;DHT22;30418;51.45933468;7.33152330;2024-02-21T01:17:46;11.90;69.00
9544;DHT22;30418;51.45933468;7.33152330;2024-02-21T01:20:17;12.00;69.10
9544;DHT22;30418;51.45933468;7.33152330;2024-02-21T01:22:46;12.00;69.20
9544;DHT22;30418;51.45933468;7.33152330;2024-02-21T01:25:16;11.90;69.00
9544;DHT22;30418;51.45933468;7.33152330;2024-02-21T01:27:44;12.00;69.10
9544;DHT22;30418;51.45933468;7.33152330;2024-02-21T01:30:13;11.90;69.00
9544;DHT22;30418;51.45933468;7.33152330;2024-02-21T01:32:42;11.90;69.00
9544;DHT22;30418;51.45933468;7.33152330;2024-02-21T01:35:11;11.90;69.00
9544;DHT22;30418;51.45933468;7.33152330;2024-02-21T01:37:40;11.90;69.00
9544;DHT22;30418;51.45933468;7.33152330;2024-02-21T01:40:09;11.90;69.00
9544;DHT22;30418;51.45933468;7.33152330;2024-02-21T01:42:40;11.90;69.10
9544;DHT22;30418;51.45933468;7.33152330;2024-02-21T01:45:10;11.90;69.00
9544;DHT22;30418;51.45933468;7.33152330;2024-02-21T01:47:42;11.90;68.90
9544;DHT22;30418;51.45933468;7.33152330;2024-02-21T01:50:12;11.90;69.00
9544;DHT22;30418;51.45933468;7.33152330;2024-02-21T01:52:41;11.90;69.00
9544;DHT22;30418;51.45933468;7.33152330;2024-02-21T01:55:11;11.90;69.00
9544;DHT22;30418;51.45933468;7.33152330;2024-02-21T01:57:43;11.90;69.00
9544;DHT22;30418;51.45933468;7.33152330;2024-02-21T02:00:15;11.90;69.00
9544;DHT22;30418;51.45933468;7.33152330;2024-02-21T02:02:45;11.90;69.00
9544;DHT22;30418;51.45933468;7.33152330;2024-02-21T02:05:14;11.90;69.00
9544;DHT22;30418;51.45933468;7.33152330;2024-02-21T02:07:44;11.90;69.10
9544;DHT22;30418;51.45933468;7.33152330;2024-02-21T02:10:13;11.90;69.10
9544;DHT22;30418;51.45933468;7.33152330;2024-02-21T02:12:43;11.90;69.10
9544;DHT22;30418;51.45933468;7.33152330;2024-02-21T02:15:11;11.90;69.10
9544;DHT22;30418;51.45933468;7.33152330;2024-02-21T02:17:40;11.90;69.10
9544;DHT22;30418;51.45933468;7.33152330;2024-02-21T02:20:10;11.90;69.10
9544;DHT22;30418;51.45933468;7.33152330;2024-02-21T02:22:42;11.90;69.10
9544;DHT22;30418;51.45933468;7.33152330;2024-02-21T02:25:13;11.90;69.20
9544;DHT22;30418;51.45933468;7.33152330;2024-02-21T02:27:42;11.90;69.20
9544;DHT22;30418;51.45933468;7.33152330;2024-02-21T02:30:12;11.80;69.10
9544;DHT22;30418;51.45933468;7.33152330;2024-02-21T02:32:44;11.80;69.20
9544;DHT22;30418;51.45933468;7.33152330;2024-02-21T02:35:14;11.80;69.10
9544;DHT22;30418;51.45933468;7.33152330;2024-02-21T02:37:48;11.90;69.20
9544;DHT22;30418;51.45933468;7.33152330;2024-02-21T02:40:19;11.80;69.10
9544;DHT22;30418;51.45933468;7.33152330;2024-02-21T02:42:48;11.90;69.20
9544;DHT22;30418;51.45933468;7.33152330;2024-02-21T02:45:17;11.80;69.10
9544;DHT22;30418;51.45933468;7.33152330;2024-02-21T02:47:46;11.90;69.20
9544;DHT22;30418;51.45933468;7.33152330;2024-02-21T02:50:15;11.90;69.20
9544;DHT22;30418;51.45933468;7.33152330;2024-02-21T02:52:44;11.90;69.20
9544;DHT22;30418;51.45933468;7.33152330;2024-02-21T02:55:12;11.80;69.10
9544;DHT22;30418;51.45933468;7.33152330;2024-02-21T02:57:42;11.90;69.10
9544;DHT22;30418;51.45933468;7.33152330;2024-02-21T03:00:12;11.90;69.20
9544;DHT22;30418;51.45933468;7.33152330;2024-02-21T03:02:43;11.80;69.10
9544;DHT22;30418;51.45933468;7.33152330;2024-02-21T03:05:14;11.80;69.10
9544;DHT22;30418;51.45933468;7.33152330;2024-02-21T03:07:44;11.80;69.10
9544;DHT22;30418;51.45933468;7.33152330;2024-02-21T03:10:14;11.80;69.10
9544;DHT22;30418;51.45933468;7.33152330;2024-02-21T03:12:46;11.80;69.10
9544;DHT22;30418;51.45933468;7.33152330;2024-02-21T03:15:14;11.80;69.00
9544;DHT22;30418;51.45933468;7.33152330;2024-02-21T03:17:43;11.80;69.10
9544;DHT22;30418;51.45933468;7.33152330;2024-02-21T03:20:11;11.80;69.10
9544;DHT22;30418;51.45933468;7.33152330;2024-02-21T03:22:41;11.80;69.10
9544;DHT22;30418;51.45933468;7.33152330;2024-02-21T03:25:10;11.80;69.10
9544;DHT22;30418;51.45933468;7.33152330;2024-02-21T03:27:39;11.80;69.10
9544;DHT22;30418;51.45933468;7.33152330;2024-02-21T03:30:10;11.80;69.10
9544;DHT22;30418;51.45933468;7.33152330;2024-02-21T03:32:39;11.80;69.10
9544;DHT22;30418;51.45933468;7.33152330;2024-02-21T03:35:08;11.80;69.10
9544;DHT22;30418;51.45933468;7.33152330;2024-02-21T03:37:36;11.80;69.00
9544;DHT22;30418;51.45933468;7.33152330;2024-02-21T03:40:07;11.80;69.90
9544;DHT22;30418;51.45933468;7.33152330;2024-02-21T03:42:37;11.80;69.00
9544;DHT22;30418;51.45933468;7.33152330;2024-02-21T03:45:07;11.80;69.00
9544;DHT22;30418;51.45933468;7.33152330;2024-02-21T03:47:37;11.80;69.10
9544;DHT22;30418;51.45933468;7.33152330;2024-02-21T03:50:07;11.80;69.00
9544;DHT22;30418;51.45933468;7.33152330;2024-02-21T03:52:36;11.80;69.00
9544;DHT22;30418;51.45933468;7.33152330;2024-02-21T03:55:06;11.80;69.00
9544;DHT22;30418;51.45933468;7.33152330;2024-02-21T03:57:35;11.80;69.10
9544;DHT22;30418;51.45933468;7.33152330;2024-02-21T04:00:05;11.80;69.00
9544;DHT22;30418;51.45933468;7.33152330;2024-02-21T04:02:39;11.80;69.00
9544;DHT22;30418;51.45933468;7.33152330;2024-02-21T04:05:08;11.80;69.00
9544;DHT22;30418;51.45933468;7.33152330;2024-02-21T04:07:38;11.80;69.00
9544;DHT22;30418;51.45933468;7.33152330;2024-02-21T04:10:08;11.80;69.00
9544;DHT22;30418;51.45933468;7.33152330;2024-02-21T04:12:37;11.80;69.10
9544;DHT22;30418;51.45933468;7.33152330;2024-02-21T04:15:06;11.80;69.00
9544;DHT22;30418;51.45933468;7.33152330;2024-02-21T04:17:36;11.80;69.00
9544;DHT22;30418;51.45933468;7.33152330;2024-02-21T04:20:14;11.80;69.00
9544;DHT22;30418;51.45933468;7.33152330;2024-02-21T04:22:43;11.80;69.00
9544;DHT22;30418;51.45933468;7.33152330;2024-02-21T04:25:13;11.80;69.80
9544;DHT22;30418;51.45933468;7.33152330;2024-02-21T04:27:41;11.80;69.50
9544;DHT22;30418;51.45933468;7.33152330;2024-02-21T04:30:10;11.80;69.00
9544;DHT22;30418;51.45933468;7.33152330;2024-02-21T04:32:39;11.80;69.10
9544;DHT22;30418;51.45933468;7.33152330;2024-02-21T04:35:10;11.80;69.00
9544;DHT22;30418;51.45933468;7.33152330;2024-02-21T04:37:38;11.80;69.00
9544;DHT22;30418;51.45933468;7.33152330;2024-02-21T04:40:07;11.80;69.00
9544;DHT22;30418;51.45933468;7.33152330;2024-02-21T04:42:37;11.80;69.10
9544;DHT22;30418;51.45933468;7.33152330;2024-02-21T04:45:07;11.80;69.10
9544;DHT22;30418;51.45933468;7.33152330;2024-02-21T04:47:36;11.80;69.90
9544;DHT22;30418;51.45933468;7.33152330;2024-02-21T04:50:05;11.80;69.00
9544;DHT22;30418;51.45933468;7.33152330;2024-02-21T04:52:36;11.80;69.10
9544;DHT22;30418;51.45933468;7.33152330;2024-02-21T04:55:05;11.80;69.00
9544;DHT22;30418;51.45933468;7.33152330;2024-02-21T04:57:34;11.80;69.00
9544;DHT22;30418;51.45933468;7.33152330;2024-02-21T05:00:03;11.80;69.00
9544;DHT22;30418;51.45933468;7.33152330;2024-02-21T05:02:33;11.80;69.00
9544;DHT22;30418;51.45933468;7.33152330;2024-02-21T05:05:01;11.80;68.90
9544;DHT22;30418;51.45933468;7.33152330;2024-02-21T05:07:30;11.80;68.90
9544;DHT22;30418;51.45933468;7.33152330;2024-02-21T05:10:00;11.80;68.90
9544;DHT22;30418;51.45933468;7.33152330;2024-02-21T05:12:29;11.80;68.90
9544;DHT22;30418;51.45933468;7.33152330;2024-02-21T05:14:57;11.80;68.90
9544;DHT22;30418;51.45933468;7.33152330;2024-02-21T05:17:26;11.80;68.90
9544;DHT22;30418;51.45933468;7.33152330;2024-02-21T05:19:55;11.80;68.90
9544;DHT22;30418;51.45933468;7.33152330;2024-02-21T05:22:23;11.80;68.80
9544;DHT22;30418;51.45933468;7.33152330;2024-02-21T05:24:52;11.80;68.80
9544;DHT22;30418;51.45933468;7.33152330;2024-02-21T05:27:22;11.80;68.70
9544;DHT22;30418;51.45933468;7.33152330;2024-02-21T05:29:50;11.80;68.70
9544;DHT22;30418;51.45933468;7.33152330;2024-02-21T05:32:19;11.80;68.70
9544;DHT22;30418;51.45933468;7.33152330;2024-02-21T05:34:48;11.80;68.60
9544;DHT22;30418;51.45933468;7.33152330;2024-02-21T05:37:18;11.80;68.60
9544;DHT22;30418;51.45933468;7.33152330;2024-02-21T05:39:46;11.80;68.60
9544;DHT22;30418;51.45933468;7.33152330;2024-02-21T05:42:15;11.80;68.50
9544;DHT22;30418;51.45933468;7.33152330;2024-02-21T05:44:45;11.80;68.50
9544;DHT22;30418;51.45933468;7.33152330;2024-02-21T05:47:13;11.80;68.40
9544;DHT22;30418;51.45933468;7.33152330;2024-02-21T05:49:42;11.80;68.50
9544;DHT22;30418;51.45933468;7.33152330;2024-02-21T05:52:11;11.80;68.40
9544;DHT22;30418;51.45933468;7.33152330;2024-02-21T05:54:40;11.80;68.50
9544;DHT22;30418;51.45933468;7.33152330;2024-02-21T05:57:09;11.80;68.40
9544;DHT22;30418;51.45933468;7.33152330;2024-02-21T05:59:38;11.80;68.30
9544;DHT22;30418;51.45933468;7.33152330;2024-02-21T06:02:10;11.80;68.30
9544;DHT22;30418;51.45933468;7.33152330;2024-02-21T06:04:40;11.80;68.30
9544;DHT22;30418;51.45933468;7.33152330;2024-02-21T06:07:10;11.80;68.30
9544;DHT22;30418;51.45933468;7.33152330;2024-02-21T06:09:38;11.70;68.20
9544;DHT22;30418;51.45933468;7.33152330;2024-02-21T06:12:07;11.80;68.30
9544;DHT22;30418;51.45933468;7.33152330;2024-02-21T06:14:35;11.70;68.20
9544;DHT22;30418;51.45933468;7.33152330;2024-02-21T06:17:04;11.80;68.30
9544;DHT22;30418;51.45933468;7.33152330;2024-02-21T06:19:34;11.80;68.30
9544;DHT22;30418;51.45933468;7.33152330;2024-02-21T06:22:02;11.70;68.10
9544;DHT22;30418;51.45933468;7.33152330;2024-02-21T06:24:35;11.70;68.10
9544;DHT22;30418;51.45933468;7.33152330;2024-02-21T06:27:04;11.80;68.20
9544;DHT22;30418;51.45933468;7.33152330;2024-02-21T06:29:37;11.80;68.20
9544;DHT22;30418;51.45933468;7.33152330;2024-02-21T06:32:06;11.80;68.20
9544;DHT22;30418;51.45933468;7.33152330;2024-02-21T06:34:36;11.80;68.20
9544;DHT22;30418;51.45933468;7.33152330;2024-02-21T06:37:05;11.80;68.20
9544;DHT22;30418;51.45933468;7.33152330;2024-02-21T06:39:34;11.80;68.10
9544;DHT22;30418;51.45933468;7.33152330;2024-02-21T06:42:04;11.80;68.10
9544;DHT22;30418;51.45933468;7.33152330;2024-02-21T06:44:33;11.80;67.90
9544;DHT22;30418;51.45933468;7.33152330;2024-02-21T06:47:07;11.80;67.90
9544;DHT22;30418;51.45933468;7.33152330;2024-02-21T06:49:37;11.80;67.90
9544;DHT22;30418;51.45933468;7.33152330;2024-02-21T06:52:06;11.80;67.90
9544;DHT22;30418;51.45933468;7.33152330;2024-02-21T06:54:35;11.80;67.90
9544;DHT22;30418;51.45933468;7.33152330;2024-02-21T06:57:03;11.80;67.90
9544;DHT22;30418;51.45933468;7.33152330;2024-02-21T06:59:32;11.80;67.80
9544;DHT22;30418;51.45933468;7.33152330;2024-02-21T07:02:01;11.80;67.80
9544;DHT22;30418;51.45933468;7.33152330;2024-02-21T07:04:29;11.80;67.70
9544;DHT22;30418;51.45933468;7.33152330;2024-02-21T07:06:59;11.80;67.70
9544;DHT22;30418;51.45933468;7.33152330;2024-02-21T07:09:29;11.80;67.70
9544;DHT22;30418;51.45933468;7.33152330;2024-02-21T07:11:59;11.80;67.60
9544;DHT22;30418;51.45933468;7.33152330;2024-02-21T07:14:28;11.80;67.60
9544;DHT22;30418;51.45933468;7.33152330;2024-02-21T07:16:56;11.80;67.60
9544;DHT22;30418;51.45933468;7.33152330;2024-02-21T07:19:25;11.90;67.50
9544;DHT22;30418;51.45933468;7.33152330;2024-02-21T07:21:54;11.80;67.40
9544;DHT22;30418;51.45933468;7.33152330;2024-02-21T07:24:25;11.80;67.40
9544;DHT22;30418;51.45933468;7.33152330;2024-02-21T07:26:53;11.90;67.50
9544;DHT22;30418;51.45933468;7.33152330;2024-02-21T07:29:23;11.80;67.40
9544;DHT22;30418;51.45933468;7.33152330;2024-02-21T07:31:51;11.80;67.30
9544;DHT22;30418;51.45933468;7.33152330;2024-02-21T07:34:20;11.90;67.40
9544;DHT22;30418;51.45933468;7.33152330;2024-02-21T07:36:49;11.90;67.40
9544;DHT22;30418;51.45933468;7.33152330;2024-02-21T07:39:17;11.90;67.40
9544;DHT22;30418;51.45933468;7.33152330;2024-02-21T07:41:47;11.90;67.50
9544;DHT22;30418;51.45933468;7.33152330;2024-02-21T07:44:16;11.90;67.40
9544;DHT22;30418;51.45933468;7.33152330;2024-02-21T07:46:45;11.90;67.40
9544;DHT22;30418;51.45933468;7.33152330;2024-02-21T07:49:13;11.90;67.40
9544;DHT22;30418;51.45933468;7.33152330;2024-02-21T07:51:42;12.00;67.50
9544;DHT22;30418;51.45933468;7.33152330;2024-02-21T07:54:10;12.00;67.50
9544;DHT22;30418;51.45933468;7.33152330;2024-02-21T07:56:43;12.00;67.50
9544;DHT22;30418;51.45933468;7.33152330;2024-02-21T07:59:14;12.00;67.40
9544;DHT22;30418;51.45933468;7.33152330;2024-02-21T08:01:42;12.00;67.40
9544;DHT22;30418;51.45933468;7.33152330;2024-02-21T08:04:16;12.00;67.40
9544;DHT22;30418;51.45933468;7.33152330;2024-02-21T08:06:44;12.00;67.40
9544;DHT22;30418;51.45933468;7.33152330;2024-02-21T08:09:15;12.00;67.40
9544;DHT22;30418;51.45933468;7.33152330;2024-02-21T08:11:44;12.00;67.20
9544;DHT22;30418;51.45933468;7.33152330;2024-02-21T08:14:14;12.00;67.10
9544;DHT22;30418;51.45933468;7.33152330;2024-02-21T08:16:46;12.10;67.20
9544;DHT22;30418;51.45933468;7.33152330;2024-02-21T08:19:15;12.10;67.20
9544;DHT22;30418;51.45933468;7.33152330;2024-02-21T08:21:44;12.10;67.20
9544;DHT22;30418;51.45933468;7.33152330;2024-02-21T08:24:20;12.10;67.20
9544;DHT22;30418;51.45933468;7.33152330;2024-02-21T08:26:49;12.10;67.20
9544;DHT22;30418;51.45933468;7.33152330;2024-02-21T08:29:21;12.10;67.20
9544;DHT22;30418;51.45933468;7.33152330;2024-02-21T08:31:49;12.10;67.20
9544;DHT22;30418;51.45933468;7.33152330;2024-02-21T08:34:18;12.10;67.20
9544;DHT22;30418;51.45933468;7.33152330;2024-02-21T08:36:47;12.10;67.20
9544;DHT22;30418;51.45933468;7.33152330;2024-02-21T08:39:15;12.10;67.20
9544;DHT22;30418;51.45933468;7.33152330;2024-02-21T08:41:44;12.10;67.20
9544;DHT22;30418;51.45933468;7.33152330;2024-02-21T08:44:28;12.10;67.20
9544;DHT22;30418;51.45933468;7.33152330;2024-02-21T08:46:59;12.10;67.20
9544;DHT22;30418;51.45933468;7.33152330;2024-02-21T08:49:31;12.10;67.20
9544;DHT22;30418;51.45933468;7.33152330;2024-02-21T08:52:03;12.20;67.40
9544;DHT22;30418;51.45933468;7.33152330;2024-02-21T08:54:32;12.20;67.30
9544;DHT22;30418;51.45933468;7.33152330;2024-02-21T08:57:10;12.20;67.30
9544;DHT22;30418;51.45933468;7.33152330;2024-02-21T08:59:44;12.20;67.20
9544;DHT22;30418;51.45933468;7.33152330;2024-02-21T09:02:14;12.20;67.20
9544;DHT22;30418;51.45933468;7.33152330;2024-02-21T09:04:43;12.20;67.20
9544;DHT22;30418;51.45933468;7.33152330;2024-02-21T09:07:12;12.20;67.20
9544;DHT22;30418;51.45933468;7.33152330;2024-02-21T09:09:43;12.20;67.20
9544;DHT22;30418;51.45933468;7.33152330;2024-02-21T09:12:12;12.20;67.20
9544;DHT22;30418;51.45933468;7.33152330;2024-02-21T09:14:42;12.20;67.20
9544;DHT22;30418;51.45933468;7.33152330;2024-02-21T09:17:16;12.20;67.30
9544;DHT22;30418;51.45933468;7.33152330;2024-02-21T09:19:45;12.20;67.30
9544;DHT22;30418;51.45933468;7.33152330;2024-02-21T09:22:14;12.20;67.40
9544;DHT22;30418;51.45933468;7.33152330;2024-02-21T09:24:44;12.20;67.40
9544;DHT22;30418;51.45933468;7.33152330;2024-02-21T09:27:17;12.10;67.30
9544;DHT22;30418;51.45933468;7.33152330;2024-02-21T09:29:47;12.10;67.50
9544;DHT22;30418;51.45933468;7.33152330;2024-02-21T09:32:15;12.10;67.50
9544;DHT22;30418;51.45933468;7.33152330;2024-02-21T09:34:44;12.20;67.60
9544;DHT22;30418;51.45933468;7.33152330;2024-02-21T09:37:13;12.10;67.50
9544;DHT22;30418;51.45933468;7.33152330;2024-02-21T09:39:42;12.10;67.60
9544;DHT22;30418;51.45933468;7.33152330;2024-02-21T09:42:11;12.10;67.70
9544;DHT22;30418;51.45933468;7.33152330;2024-02-21T09:44:40;12.10;67.70
9544;DHT22;30418;51.45933468;7.33152330;2024-02-21T09:47:16;12.10;67.70
9544;DHT22;30418;51.45933468;7.33152330;2024-02-21T09:49:47;12.10;67.70
9544;DHT22;30418;51.45933468;7.33152330;2024-02-21T09:52:17;12.10;67.70
9544;DHT22;30418;51.45933468;7.33152330;2024-02-21T09:54:47;12.10;67.70
9544;DHT22;30418;51.45933468;7.33152330;2024-02-21T09:57:16;12.10;67.70
9544;DHT22;30418;51.45933468;7.33152330;2024-02-21T09:59:45;12.10;67.80
9544;DHT22;30418;51.45933468;7.33152330;2024-02-21T10:02:15;12.10;67.80
9544;DHT22;30418;51.45933468;7.33152330;2024-02-21T10:04:44;12.10;67.80
9544;DHT22;30418;51.45933468;7.33152330;2024-02-21T10:07:13;12.10;67.80
9544;DHT22;30418;51.45933468;7.33152330;2024-02-21T10:09:41;12.10;67.80
9544;DHT22;30418;51.45933468;7.33152330;2024-02-21T10:12:12;12.10;67.70
9544;DHT22;30418;51.45933468;7.33152330;2024-02-21T10:14:44;12.10;67.70
9544;DHT22;30418;51.45933468;7.33152330;2024-02-21T10:17:22;12.10;67.80
9544;DHT22;30418;51.45933468;7.33152330;2024-02-21T10:19:50;12.10;67.80
9544;DHT22;30418;51.45933468;7.33152330;2024-02-21T10:22:19;12.10;67.70
9544;DHT22;30418;51.45933468;7.33152330;2024-02-21T10:24:48;12.10;67.70
9544;DHT22;30418;51.45933468;7.33152330;2024-02-21T10:27:17;12.10;67.60
9544;DHT22;30418;51.45933468;7.33152330;2024-02-21T10:29:49;12.10;67.60
9544;DHT22;30418;51.45933468;7.33152330;2024-02-21T10:32:22;12.10;67.50
9544;DHT22;30418;51.45933468;7.33152330;2024-02-21T10:35:01;12.10;67.50
9544;DHT22;30418;51.45933468;7.33152330;2024-02-21T10:37:31;12.10;67.50
9544;DHT22;30418;51.45933468;7.33152330;2024-02-21T10:40:00;12.10;67.60
9544;DHT22;30418;51.45933468;7.33152330;2024-02-21T10:42:31;12.10;67.50
9544;DHT22;30418;51.45933468;7.33152330;2024-02-21T10:45:02;12.10;67.40
9544;DHT22;30418;51.45933468;7.33152330;2024-02-21T10:47:43;12.10;67.30
9544;DHT22;30418;51.45933468;7.33152330;2024-02-21T10:50:15;12.10;67.30
9544;DHT22;30418;51.45933468;7.33152330;2024-02-21T10:52:56;12.10;67.40
9544;DHT22;30418;51.45933468;7.33152330;2024-02-21T10:55:37;12.10;67.20
9544;DHT22;30418;51.45933468;7.33152330;2024-02-21T10:58:08;12.20;68.40
9544;DHT22;30418;51.45933468;7.33152330;2024-02-21T11:00:39;12.20;67.60
9544;DHT22;30418;51.45933468;7.33152330;2024-02-21T11:03:11;12.20;67.60
9544;DHT22;30418;51.45933468;7.33152330;2024-02-21T11:05:41;12.20;67.50
9544;DHT22;30418;51.45933468;7.33152330;2024-02-21T11:08:13;12.30;67.40
9544;DHT22;30418;51.45933468;7.33152330;2024-02-21T11:10:46;12.30;67.40
9544;DHT22;30418;51.45933468;7.33152330;2024-02-21T11:13:14;12.40;67.40
9544;DHT22;30418;51.45933468;7.33152330;2024-02-21T11:15:46;12.40;67.50
9544;DHT22;30418;51.45933468;7.33152330;2024-02-21T11:18:24;12.40;67.40
9544;DHT22;30418;51.45933468;7.33152330;2024-02-21T11:20:54;12.50;67.10
9544;DHT22;30418;51.45933468;7.33152330;2024-02-21T11:23:25;12.50;67.20
9544;DHT22;30418;51.45933468;7.33152330;2024-02-21T11:26:04;12.50;67.10
9544;DHT22;30418;51.45933468;7.33152330;2024-02-21T11:28:34;12.50;66.90
9544;DHT22;30418;51.45933468;7.33152330;2024-02-21T11:31:11;12.60;67.10
9544;DHT22;30418;51.45933468;7.33152330;2024-02-21T11:33:43;12.60;66.90
9544;DHT22;30418;51.45933468;7.33152330;2024-02-21T11:36:24;12.60;66.90
9544;DHT22;30418;51.45933468;7.33152330;2024-02-21T11:38:53;12.70;66.80
9544;DHT22;30418;51.45933468;7.33152330;2024-02-21T11:41:21;12.70;66.80
9544;DHT22;30418;51.45933468;7.33152330;2024-02-21T11:43:50;12.70;66.60
9544;DHT22;30418;51.45933468;7.33152330;2024-02-21T11:46:19;12.70;66.60
9544;DHT22;30418;51.45933468;7.33152330;2024-02-21T11:48:49;12.70;66.60
9544;DHT22;30418;51.45933468;7.33152330;2024-02-21T11:51:21;12.80;66.70
9544;DHT22;30418;51.45933468;7.33152330;2024-02-21T11:53:53;12.80;66.40
9544;DHT22;30418;51.45933468;7.33152330;2024-02-21T11:56:28;12.80;66.40
9544;DHT22;30418;51.45933468;7.33152330;2024-02-21T11:58:59;12.90;66.40
9544;DHT22;30418;51.45933468;7.33152330;2024-02-21T12:01:27;12.90;66.20
9544;DHT22;30418;51.45933468;7.33152330;2024-02-21T12:03:57;12.90;66.10
9544;DHT22;30418;51.45933468;7.33152330;2024-02-21T12:06:29;12.90;66.00
9544;DHT22;30418;51.45933468;7.33152330;2024-02-21T12:08:58;13.00;66.00
9544;DHT22;30418;51.45933468;7.33152330;2024-02-21T12:11:26;13.00;65.90
9544;DHT22;30418;51.45933468;7.33152330;2024-02-21T12:13:59;13.00;65.80
9544;DHT22;30418;51.45933468;7.33152330;2024-02-21T12:16:30;13.10;65.70
9544;DHT22;30418;51.45933468;7.33152330;2024-02-21T12:19:03;13.10;65.80
9544;DHT22;30418;51.45933468;7.33152330;2024-02-21T12:21:34;13.10;65.60
9544;DHT22;30418;51.45933468;7.33152330;2024-02-21T12:24:14;13.10;65.70
9544;DHT22;30418;51.45933468;7.33152330;2024-02-21T12:26:45;13.20;65.30
9544;DHT22;30418;51.45933468;7.33152330;2024-02-21T12:29:14;13.20;65.30
9544;DHT22;30418;51.45933468;7.33152330;2024-02-21T12:31:42;13.20;65.30
9544;DHT22;30418;51.45933468;7.33152330;2024-02-21T12:34:15;13.20;65.20
9544;DHT22;30418;51.45933468;7.33152330;2024-02-21T12:36:58;13.20;65.00
9544;DHT22;30418;51.45933468;7.33152330;2024-02-21T12:39:27;13.20;65.00
9544;DHT22;30418;51.45933468;7.33152330;2024-02-21T12:41:58;13.30;64.90
9544;DHT22;30418;51.45933468;7.33152330;2024-02-21T12:44:28;13.20;64.50
9544;DHT22;30418;51.45933468;7.33152330;2024-02-21T12:46:58;13.30;64.70
9544;DHT22;30418;51.45933468;7.33152330;2024-02-21T12:49:28;13.30;64.60
9544;DHT22;30418;51.45933468;7.33152330;2024-02-21T12:51:59;13.30;64.40
9544;DHT22;30418;51.45933468;7.33152330;2024-02-21T12:54:31;13.30;64.30
9544;DHT22;30418;51.45933468;7.33152330;2024-02-21T12:57:02;13.30;64.30
9544;DHT22;30418;51.45933468;7.33152330;2024-02-21T12:59:31;13.30;64.20
9544;DHT22;30418;51.45933468;7.33152330;2024-02-21T13:02:00;13.30;64.10
9544;DHT22;30418;51.45933468;7.33152330;2024-02-21T13:04:30;13.30;64.20
9544;DHT22;30418;51.45933468;7.33152330;2024-02-21T13:06:59;13.30;64.90
9544;DHT22;30418;51.45933468;7.33152330;2024-02-21T13:09:28;13.30;64.20
9544;DHT22;30418;51.45933468;7.33152330;2024-02-21T13:11:56;13.30;64.20
9544;DHT22;30418;51.45933468;7.33152330;2024-02-21T13:14:25;13.30;64.20
9544;DHT22;30418;51.45933468;7.33152330;2024-02-21T13:16:53;13.40;64.00
9544;DHT22;30418;51.45933468;7.33152330;2024-02-21T13:19:22;13.40;64.00
9544;DHT22;30418;51.45933468;7.33152330;2024-02-21T13:21:52;13.40;63.90
9544;DHT22;30418;51.45933468;7.33152330;2024-02-21T13:24:21;13.40;63.70
9544;DHT22;30418;51.45933468;7.33152330;2024-02-21T13:26:50;13.40;63.70
9544;DHT22;30418;51.45933468;7.33152330;2024-02-21T13:29:18;13.40;63.60
9544;DHT22;30418;51.45933468;7.33152330;2024-02-21T13:31:47;13.40;63.50
9544;DHT22;30418;51.45933468;7.33152330;2024-02-21T13:34:17;13.50;63.80
9544;DHT22;30418;51.45933468;7.33152330;2024-02-21T13:36:46;13.50;63.70
9544;DHT22;30418;51.45933468;7.33152330;2024-02-21T13:39:15;13.50;63.80
9544;DHT22;30418;51.45933468;7.33152330;2024-02-21T13:41:46;13.50;63.80
9544;DHT22;30418;51.45933468;7.33152330;2024-02-21T13:44:14;13.50;63.90
9544;DHT22;30418;51.45933468;7.33152330;2024-02-21T13:46:43;13.60;63.60
9544;DHT22;30418;51.45933468;7.33152330;2024-02-21T13:49:11;13.60;63.50